Flight Track Log - Related Links

Times and Time Zones

All times are in EDT time to prevent confusion due to time zone crossing. See the UAL252 flight status page for this flight to view local times or setup timezone preferences in your user account.

Time Position Orientation Groundspeed Altitude Reporting Facility
EDT Latitude Longitude Course Direction KTS MPH feet Rate Location/Type
Thu 06:52:57 PM 33.6667 -117.8833 90° East 117 135 1,200  Level Southern California TRACON
Thu 06:53:57 PM 33.6167 -117.9000 196° South 142 163 2,800 1,443 Climbing Southern California TRACON
Thu 06:54:16 PM 33.6169 -117.8933 87° East 139 160 3,100 1,244 Climbing Los Angeles Center
Thu 06:55:00 PM 33.4909 -117.6430 54° Northeast  Level FlightAware Approximate
Thu 06:55:19 PM 33.5692 -117.9014 188° South 165 190 4,500  Level Los Angeles Center
Thu 06:56:00 PM 33.5489 -117.5142 66° East  Level FlightAware Approximate
Thu 06:56:21 PM 33.4947 -117.8808 167° South 228 262 7,600  Level Los Angeles Center
Thu 06:57:00 PM 33.5833 -117.3755 90° East  Level FlightAware Approximate
Thu 06:57:23 PM 33.4800 -117.8064 103° East 257 296 9,800  Level Los Angeles Center
Thu 06:58:00 PM 33.5834 -117.2283 90° East  Level FlightAware Approximate
Thu 06:58:25 PM 33.5131 -117.7164 66° East 290 334 12,300  Level Los Angeles Center
Thu 06:59:27 PM 33.5453 -117.6083 70° East 330 380 14,700 2,226 Climbing Los Angeles Center
Thu 07:00:29 PM 33.5797 -117.4942 70° East 360 414 16,900 2,081 Climbing Los Angeles Center
Thu 07:01:31 PM 33.5878 -117.3378 86° East 397 457 19,000 1,887 Climbing Los Angeles Center
Thu 07:02:33 PM 33.5936 -117.1975 87° East 420 483 20,800 1,645 Climbing Los Angeles Center
Thu 07:03:35 PM 33.5983 -117.0508 88° East 438 504 22,400 1,392 Climbing Los Angeles Center
Thu 07:04:38 PM 33.6039 -116.8961 87° East 462 532 23,700 1,680 Climbing Los Angeles Center
Thu 07:05:40 PM 33.6294 -116.7222 80° East 465 535 25,900 1,306 Climbing Los Angeles Center
Thu 07:06:42 PM 33.6633 -116.5731 75° East 461 531 26,400 532 Climbing Los Angeles Center
Thu 07:07:44 PM 33.6986 -116.4200 74° East 469 540 27,000 871 Climbing Los Angeles Center
Thu 07:08:46 PM 33.7364 -116.2547 75° East 503 579 28,200 919 Climbing Los Angeles Center
Thu 07:09:48 PM 33.7758 -116.0886 74° East 515 593 28,900 339 Climbing Los Angeles Center
Thu 07:10:50 PM 33.8167 -115.9203 74° East 521 600 28,900  Level Los Angeles Center
Thu 07:11:52 PM 33.8575 -115.7519 74° East 524 603 28,900  Level Los Angeles Center
Thu 07:12:55 PM 33.9078 -115.5492 73° East 526 605 28,900 384 Level Los Angeles Center
Thu 07:13:57 PM 33.9831 -115.4008 59° Northeast 521 600 29,700 1,210 Climbing Los Angeles Center
Thu 07:14:59 PM 34.0608 -115.2569 57° Northeast 514 592 31,400 1,645 Climbing Los Angeles Center
Thu 07:16:01 PM 34.1383 -115.1158 56° Northeast 507 583 33,100 1,597 Climbing Los Angeles Center
Thu 07:17:03 PM 34.2153 -114.9753 56° Northeast 503 579 34,700 919 Climbing Los Angeles Center
Thu 07:18:05 PM 34.2900 -114.8361 57° Northeast 497 572 35,000 532 Climbing Los Angeles Center
Thu 07:19:07 PM 34.3792 -114.6722 57° Northeast 489 563 35,800 871 Climbing Los Angeles Center
Thu 07:20:09 PM 34.4531 -114.5336 57° Northeast 490 564 36,800 532 Climbing Los Angeles Center
Thu 07:21:11 PM 34.5264 -114.3972 57° Northeast 486 559 36,900 48 Climbing Los Angeles Center
Thu 07:22:14 PM 34.5997 -114.2603 57° Northeast 484 557 36,900 48 Level Los Angeles Center
Thu 07:23:16 PM 34.6761 -114.1153 57° Northeast 511 588 37,000 48 Climbing Los Angeles Center
Thu 07:24:18 PM 34.7669 -113.9436 57° Northeast 506 582 37,000  Level Los Angeles Center
Thu 07:25:20 PM 34.8369 -113.8108 57° Northeast 500 575 37,000  Level Los Angeles Center
Thu 07:26:22 PM 34.9108 -113.6694 57° Northeast 498 573 37,000  Level Los Angeles Center
Thu 07:27:24 PM 34.9844 -113.5275 58° Northeast 499 574 37,000  Level Los Angeles Center
Thu 07:28:26 PM 35.0731 -113.3575 57° Northeast 498 573 37,000  Level Los Angeles Center
Thu 07:29:28 PM 35.1472 -113.2136 58° Northeast 503 579 37,000  Level Los Angeles Center
Thu 07:30:31 PM 35.2244 -113.0608 58° Northeast 495 570 37,000  Level Los Angeles Center
Thu 07:31:33 PM 35.2942 -112.9253 58° Northeast 500 575 37,000  Level Los Angeles Center
Thu 07:32:35 PM 35.3683 -112.7819 58° Northeast 501 577 37,000  Level Los Angeles Center
Thu 07:33:37 PM 35.4494 -112.6208 58° Northeast 507 583 37,000  Level Los Angeles Center
Thu 07:34:39 PM 35.5219 -112.4761 58° Northeast 503 579 37,000  Level Los Angeles Center
Thu 07:35:41 PM 35.5947 -112.3317 58° Northeast 501 577 37,000  Level Los Angeles Center
Thu 07:36:43 PM 35.6825 -112.1575 58° Northeast 502 578 37,000  Level Los Angeles Center
Thu 07:37:45 PM 35.7550 -112.0119 58° Northeast 503 579 37,000  Level Los Angeles Center
Thu 07:38:48 PM 35.8267 -111.8669 59° Northeast 499 574 37,000  Level Los Angeles Center
Thu 07:39:50 PM 35.8986 -111.7219 58° Northeast 498 573 37,000  Level Los Angeles Center
Thu 07:40:20 PM 35.9222 -111.6761 58° Northeast 500 575 37,000  Level Denver Center
Thu 07:41:23 PM 36.0081 -111.5014 59° Northeast 498 573 37,000  Level Denver Center
Thu 07:42:25 PM 36.0942 -111.3256 59° Northeast 500 575 37,000  Level Denver Center
Thu 07:43:27 PM 36.1803 -111.1906 52° Northeast 500 575 37,000  Level Denver Center
Thu 07:44:29 PM 36.2719 -111.0653 48° Northeast 496 571 37,000  Level Denver Center
Thu 07:45:31 PM 36.3450 -110.9175 58° Northeast 502 578 37,000  Level Denver Center
Thu 07:46:33 PM 36.4139 -110.7683 60° Northeast 502 578 37,000  Level Denver Center
Thu 07:47:35 PM 36.4997 -110.5856 60° Northeast 508 585 37,000  Level Denver Center
Thu 07:48:37 PM 36.5703 -110.4333 60° Northeast 509 586 37,000  Level Denver Center
Thu 07:49:39 PM 36.6397 -110.2800 61° Northeast 511 588 37,000  Level Denver Center
Thu 07:50:41 PM 36.7100 -110.1281 60° Northeast 513 590 37,000  Level Denver Center
Thu 07:51:43 PM 36.7883 -109.9553 60° Northeast 512 589 37,000  Level Denver Center
Thu 07:52:45 PM 36.8550 -109.8075 61° Northeast 510 587 37,000  Level Denver Center
Thu 07:53:47 PM 36.9328 -109.6350 61° Northeast 509 586 37,000  Level Denver Center
Thu 07:54:49 PM 36.9994 -109.4864 61° Northeast 509 586 37,000  Level Denver Center
Thu 07:55:51 PM 37.0775 -109.3136 60° Northeast 509 586 37,000  Level Denver Center
Thu 07:56:53 PM 37.1533 -109.1728 56° Northeast 508 585 37,000  Level Denver Center
Thu 07:57:55 PM 37.2342 -109.0336 54° Northeast 511 588 37,000  Level Denver Center
Thu 07:58:57 PM 37.3267 -108.8708 54° Northeast 511 588 37,000  Level Denver Center
Thu 07:59:59 PM 37.4078 -108.7297 54° Northeast 518 596 37,000  Level Denver Center
Thu 08:01:01 PM 37.5008 -108.5653 54° Northeast 515 593 37,000  Level Denver Center
Thu 08:02:04 PM 37.5814 -108.4200 55° Northeast 522 601 37,000  Level Denver Center
Thu 08:03:06 PM 37.6753 -108.2556 54° Northeast 518 596 37,000  Level Denver Center
Thu 08:04:08 PM 37.7550 -108.1128 55° Northeast 518 596 37,000  Level Denver Center
Thu 08:05:10 PM 37.8478 -107.9469 55° Northeast 516 594 37,000  Level Denver Center
Thu 08:06:12 PM 37.9275 -107.8022 55° Northeast 521 600 37,000  Level Denver Center
Thu 08:07:14 PM 38.0206 -107.6344 55° Northeast 520 598 37,000  Level Denver Center
Thu 08:08:16 PM 38.0931 -107.5022 55° Northeast 519 597 37,000  Level Denver Center
Thu 08:09:18 PM 38.1856 -107.3317 55° Northeast 527 606 37,000 -244 Level Denver Center
Thu 08:10:19 PM 38.2503 -107.2119 55° Northeast 520 598 36,500 -823 Descending Denver Center
Thu 08:11:22 PM 38.3525 -107.0261 55° Northeast 519 597 35,300 -1,056 Descending Denver Center
Thu 08:12:24 PM 38.4356 -106.8733 55° Northeast 523 602 34,300 -968 Descending Denver Center
Thu 08:13:26 PM 38.5172 -106.7189 56° Northeast 526 605 33,300 -629 Descending Denver Center
Thu 08:14:28 PM 38.5986 -106.5667 56° Northeast 522 601 33,000 -194 Descending Denver Center
Thu 08:15:30 PM 38.6961 -106.3819 56° Northeast 525 604 32,900 -677 Descending Denver Center
Thu 08:16:32 PM 38.7758 -106.2317 56° Northeast 516 594 31,600 -2,468 Descending Denver Center
Thu 08:17:34 PM 38.8550 -106.0822 56° Northeast 516 594 27,800 -2,903 Descending Denver Center
Thu 08:18:36 PM 38.9328 -105.9300 57° Northeast 510 587 25,600 -2,468 Descending Denver Center
Thu 08:19:38 PM 39.0161 -105.7728 56° Northeast 486 559 22,700 -2,565 Descending Denver Center
Thu 08:20:40 PM 39.0831 -105.6425 56° Northeast 461 531 20,300 -2,274 Descending Denver Center
Thu 08:21:42 PM 39.1592 -105.4944 56° Northeast 443 510 18,000 -1,597 Descending Denver Center
Thu 08:22:44 PM 39.2236 -105.3725 56° Northeast 386 444 17,000 -677 Descending Denver Center
Thu 08:23:46 PM 39.2844 -105.2789 50° Northeast 333 383 16,600 -823 Descending Denver Center
Thu 08:24:48 PM 39.3575 -105.2072 37° Northeast 301 346 15,300 -780 Descending Denver Center
Thu 08:25:49 PM 39.4236 -105.1442 36° Northeast 295 339 15,000 -341 Descending Denver Center
Thu 08:26:51 PM 39.4956 -105.1333 North 265 305 14,600 -919 Descending Denver Center
Thu 08:27:53 PM 39.5750 -105.1286 North 264 304 13,100 -774 Descending Denver Center
Thu 08:28:55 PM 39.6469 -105.1242 North 261 300 13,000 -242 Descending Denver Center
Thu 08:29:57 PM 39.7239 -105.1200 North 257 296 12,600 -871 Descending Denver Center
Thu 08:30:59 PM 39.7964 -105.1186 North 258 297 11,200 -1,113 Descending Denver Center
Thu 08:32:01 PM 39.8364 -105.0531 52° Northeast 234 269 10,300 -1,065 Descending Denver Center
Thu 08:33:03 PM 39.8419 -104.9814 84° East 194 223 9,000 -1,065 Descending Denver Center
Thu 08:34:05 PM 39.8419 -104.9142 90° East 186 214 8,100 -871 Descending Denver Center

Login

Don't have an account? Register now (free) for customized features, flight alerts, and more!